Pagrindinis puslapis
METAR-TAF:

METAR-TAF

Oro uostai :

Liepojos tarptautinis oro uostas

Liepoja, Latvija

platuma: 56-31N, ilguma: 021-05E, Aukštis: 5 m

Dabartinis oras

Ataskaita buvo paskelbta 14 minutes, ne 17:20 UTC
Vėjas 4 kt iš Šiaurės Rytų
Temperatūra 1°C
Drėgmė 86%
Slėgis 1034 hPa
Matomumas 10 km arba daugiau

METAR: EVLA 191720Z AUTO 04004KT 9999 FEW048/// 01/M01 Q1034

Laikas: 19:34 (17:34 UTC)

Prognozė

Ataskaita buvo paskelbta 3 valandos ir 32 minutes, ne 14:02 UTC
Prognozė galioja nuo 19 metu 15 UTC su 20 metu 15 UTC
Vėjas 7 kt iš Rytų/Šiaurės Rytų
Matomumas 10 km arba daugiau
Su prošvaistėmis ne aukštis 2000 ft

TAF: EVLA 191402Z 1915/2015 06007KT 9999 BKN020

Orai ataskaitas ir orų prognozės (METAR, TAF).

turimą stotys yra geltonos ir raudonos taškus žemėlapyje.

Perkelti pele per norėdami pamatyti stoties vardą.

Tada spustelėkite, norėdami matyti oro stebėjimo ir prognozės.

Norėdami pakeisti žemėlapį: spustelėkite ant žalios mygtukų su juodo kryžiaus žemyn,; žalią mygtuką su brūkšneliu, jei norite nutolinti; arba žalių rodyklių gretimoms žemėlapius.


METAR-TAF: